Terminal Aerodrome Forecast
Issued by NWS Albany, NY

Home | Current Version | Previous Version | Text Only | Print | Product List | Glossary On
Versions: 1 2 3 4 5 6 7 8 9 10 11 12
196
FTUS41 KALY 261136
TAFALB
TAF
KALB 261136Z 2612/2712 00000KT P6SM MIFG BKN260
     FM261300 VRB05KT P6SM FEW035
     FM270800 00000KT 6SM MIFG SKC=

USA.gov is the U.S. government's official web portal to all federal, state and local government web resources and services.